Time;durP1;ratioP1;P1;durP2;ratioP2;P2;SDS_P1;SDS_P2;PMS_P1;PMS_P2;Temp;Humidity;BMP_temperature;BMP_pressure;BME280_temperature;BME280_humidity;BME280_pressure;Samples;Min_cycle;Max_cycle;Signal;HPM_P1;HPM_P2
2021/01/18 05:02:39;;;;;;;21.15;10.45;;;;;;;-4.96;78.27;100445.66;4899771;23;20076;-61
2021/01/18 05:05:21;;;;;;;25.20;12.15;;;;;;;-4.86;78.73;100440.56;4889793;29;20532;-60
2021/01/18 05:08:02;;;;;;;;;;;;;;;-4.71;78.11;100436.75;4912317;29;20035;-62
2021/01/18 05:10:30;;;;;;;24.42;10.90;;;;;;;-4.69;78.04;100442.75;4898346;29;20003;-63
2021/01/18 05:12:57;;;;;;;27.00;11.95;;;;;;;-4.66;78.06;100454.88;4902077;29;20139;-63
2021/01/18 05:15:24;;;;;;;25.52;11.98;;;;;;;-4.69;78.19;100447.19;4907846;29;20044;-62
2021/01/18 05:17:58;;;;;;;25.85;13.18;;;;;;;-4.75;78.10;100451.16;4892011;29;20047;-62
2021/01/18 05:20:25;;;;;;;26.23;12.32;;;;;;;-4.80;77.73;100446.22;4908158;29;20036;-63
2021/01/18 05:22:55;;;;;;;27.73;12.43;;;;;;;-4.85;78.53;100440.47;4905953;29;20072;-62
2021/01/18 05:25:22;;;;;;;30.92;14.25;;;;;;;-4.75;78.80;100452.00;4891925;29;20059;-60
2021/01/18 05:27:58;;;;;;;27.83;12.75;;;;;;;-4.64;78.89;100447.69;4909425;29;20040;-62
2021/01/18 05:30:25;;;;;;;27.70;14.43;;;;;;;-4.61;78.92;100447.44;4924849;29;20545;-62
2021/01/18 05:33:07;;;;;;;24.55;12.55;;;;;;;-4.71;77.80;100451.75;4910845;29;20067;-62
2021/01/18 05:35:33;;;;;;;;;;;;;;;-4.75;78.51;100453.78;4913677;29;20094;-60
2021/01/18 05:38:09;;;;;;;28.23;12.23;;;;;;;-4.80;78.41;100453.28;4905084;28;19926;-60
2021/01/18 05:40:50;;;;;;;27.48;13.57;;;;;;;-4.92;77.92;100449.75;4914891;29;20063;-59
2021/01/18 05:43:17;;;;;;;29.60;14.18;;;;;;;-5.02;78.09;100453.22;4912954;29;20111;-58
2021/01/18 05:45:45;;;;;;;38.30;15.35;;;;;;;-5.00;79.01;100456.56;4912885;29;20453;-58
2021/01/18 05:48:12;;;;;;;33.90;15.15;;;;;;;-5.02;79.45;100451.41;4912425;29;20091;-59
2021/01/18 05:50:39;;;;;;;33.15;15.40;;;;;;;-4.92;80.13;100452.41;4930434;29;20040;-57
2021/01/18 05:53:23;;;;;;;30.05;14.70;;;;;;;-5.04;79.25;100444.56;4915091;29;20160;-57
2021/01/18 05:55:48;;;;;;;32.38;14.25;;;;;;;-5.03;80.55;100448.88;4914394;29;20529;-58
2021/01/18 05:58:27;;;;;;;32.97;16.17;;;;;;;-4.91;79.62;100455.88;4901054;29;20044;-59
2021/01/18 06:00:55;;;;;;;31.83;15.15;;;;;;;-4.76;81.15;100450.31;4908782;29;20039;-58
2021/01/18 06:03:27;;;;;;;36.47;16.77;;;;;;;-4.65;80.32;100465.31;4895632;29;20055;-58
2021/01/18 06:05:54;;;;;;;32.65;15.00;;;;;;;-4.55;80.40;100454.91;4892913;29;20040;-59
2021/01/18 06:08:20;;;;;;;32.63;16.02;;;;;;;-4.48;80.75;100450.84;4894279;29;20039;-57
2021/01/18 06:10:50;;;;;;;34.90;16.60;;;;;;;-4.50;80.50;100458.06;4886652;29;20398;-58
2021/01/18 06:13:29;;;;;;;30.33;15.75;;;;;;;-4.52;79.95;100457.31;4882957;29;20067;-57
2021/01/18 06:16:01;;;;;;;33.63;16.65;;;;;;;-4.50;80.90;100447.50;4894332;29;20055;-58
2021/01/18 06:18:29;;;;;;;29.85;16.30;;;;;;;-4.59;80.37;100451.66;4893452;29;20065;-57
2021/01/18 06:20:57;;;;;;;33.70;15.27;;;;;;;-4.45;79.56;100455.88;4893812;29;20235;-57
2021/01/18 06:23:23;;;;;;;36.00;16.52;;;;;;;-4.33;80.67;100454.94;4910205;29;20036;-59
2021/01/18 06:25:53;;;;;;;33.45;16.08;;;;;;;-4.23;80.28;100463.00;4894671;29;20064;-59
2021/01/18 06:28:36;;;;;;;37.33;15.80;;;;;;;-4.42;79.92;100464.41;4894509;29;20110;-60
2021/01/18 06:31:10;;;;;;;33.67;16.27;;;;;;;-4.38;80.43;100465.84;4893956;29;20044;-57
2021/01/18 06:33:48;;;;;;;32.20;16.58;;;;;;;-4.26;80.35;100471.13;4911079;29;20103;-59
2021/01/18 06:36:25;;;;;;;34.08;16.42;;;;;;;-4.29;79.21;100466.13;4901010;29;20556;-57
2021/01/18 06:38:57;;;;;;;36.35;16.60;;;;;;;-4.32;79.80;100463.72;4879268;29;20277;-57
2021/01/18 06:41:37;;;;;;;37.83;18.73;;;;;;;-4.36;79.71;100465.72;4908007;29;20044;-59
2021/01/18 06:44:05;;;;;;;31.30;16.08;;;;;;;-4.39;80.03;100471.25;4894405;29;20414;-58
2021/01/18 06:46:35;;;;;;;32.35;16.50;;;;;;;-4.38;80.27;100470.28;4909322;29;20040;-59
2021/01/18 06:49:02;;;;;;;34.75;15.82;;;;;;;-4.47;79.69;100468.34;4904004;29;20035;-57
2021/01/18 06:51:29;;;;;;;40.35;16.23;;;;;;;-4.44;79.92;100471.59;4898525;29;20121;-58
2021/01/18 06:53:56;;;;;;;31.23;16.33;;;;;;;-4.44;79.93;100476.88;4890400;29;20075;-59
2021/01/18 06:56:22;;;;;;;39.63;18.40;;;;;;;-4.45;80.00;100477.84;4905358;29;20032;-58
2021/01/18 06:58:57;;;;;;;37.70;17.80;;;;;;;-4.30;80.06;100475.00;4925182;29;20043;-58
2021/01/18 07:01:36;;;;;;;36.80;15.90;;;;;;;-4.32;80.52;100479.53;4905498;28;20036;-59
2021/01/18 07:04:04;;;;;;;42.10;16.20;;;;;;;-4.43;80.20;100478.56;4914096;28;20043;-57
2021/01/18 07:06:34;;;;;;;32.30;16.83;;;;;;;-4.27;81.79;100477.41;4924186;29;20044;-57
2021/01/18 07:09:04;;;;;;;32.38;16.73;;;;;;;-4.23;80.73;100465.63;4891756;29;20130;-57
2021/01/18 07:11:30;;;;;;;34.15;16.10;;;;;;;-4.17;80.33;100463.38;4907746;29;20115;-59
2021/01/18 07:13:56;;;;;;;35.00;15.80;;;;;;;-4.16;81.19;100472.13;4928511;29;20040;-58
2021/01/18 07:16:24;;;;;;;36.53;17.85;;;;;;;-4.07;80.43;100476.69;4929549;28;20047;-57
2021/01/18 07:18:54;;;;;;;33.03;16.55;;;;;;;-4.05;81.07;100477.44;4898030;29;20147;-59
2021/01/18 07:21:21;;;;;;;45.53;18.30;;;;;;;-4.04;80.44;100476.47;4920337;29;20457;-59
2021/01/18 07:23:53;;;;;;;37.53;18.60;;;;;;;-4.05;80.02;100472.16;4912783;29;20047;-59
2021/01/18 07:26:31;;;;;;;33.33;16.60;;;;;;;-4.13;80.23;100475.34;4892172;29;20130;-58
2021/01/18 07:29:05;;;;;;;32.50;16.88;;;;;;;-4.16;80.54;100482.69;4893315;29;20099;-58
2021/01/18 07:31:30;;;;;;;32.58;17.40;;;;;;;-4.06;80.62;100481.03;4911128;29;20048;-59
2021/01/18 07:33:57;;;;;;;39.60;16.77;;;;;;;-4.05;80.05;100480.91;4919035;29;20401;-59
2021/01/18 07:36:25;;;;;;;34.03;18.02;;;;;;;-3.98;79.66;100489.19;4892653;29;20040;-57
2021/01/18 07:38:52;;;;;;;37.22;17.00;;;;;;;-3.94;80.06;100474.78;4909537;29;20043;-59
2021/01/18 07:41:20;;;;;;;32.88;16.20;;;;;;;-3.89;79.50;100480.53;4906364;29;20050;-58
2021/01/18 07:43:49;;;;;;;38.42;15.90;;;;;;;-3.76;78.83;100481.25;4912009;29;20123;-59
2021/01/18 07:46:24;;;;;;;36.65;17.65;;;;;;;-3.71;79.35;100478.25;4927577;29;20072;-57
2021/01/18 07:49:10;;;;;;;33.15;17.40;;;;;;;-3.61;79.33;100479.22;4901322;29;20047;-59
2021/01/18 07:51:36;;;;;;;33.92;16.92;;;;;;;-3.63;78.54;100480.28;4916600;29;20684;-58
2021/01/18 07:54:02;;;;;;;33.92;16.63;;;;;;;-3.63;78.69;100480.28;4892272;29;20098;-58
2021/01/18 07:56:30;;;;;;;38.45;18.40;;;;;;;-3.63;79.46;100481.13;4893644;29;20398;-58
2021/01/18 07:59:03;;;;;;;35.70;17.63;;;;;;;-3.56;79.43;100484.09;4892309;29;20048;-58
2021/01/18 08:01:39;;;;;;;34.88;17.35;;;;;;;-3.59;79.46;100490.50;4893224;29;20581;-57
2021/01/18 08:04:20;;;;;;;32.42;16.83;;;;;;;-3.62;79.06;100484.59;4893152;29;20050;-58
2021/01/18 08:07:07;;;;;;;41.85;17.55;;;;;;;-3.72;79.91;100492.44;4927953;29;20040;-57
2021/01/18 08:09:37;;;;;;;39.67;16.75;;;;;;;-3.75;80.52;100492.66;4898544;28;20035;-57
2021/01/18 08:12:30;;;;;;;38.60;18.17;;;;;;;-3.80;79.18;100484.25;4891974;29;20044;-58
2021/01/18 08:15:04;;;;;;;37.88;17.67;;;;;;;-3.87;79.59;100490.97;4889683;29;20432;-57
2021/01/18 08:17:29;;;;;;;34.35;17.67;;;;;;;-3.83;79.47;100489.78;4913691;29;20040;-58
2021/01/18 08:20:16;;;;;;;32.80;16.25;;;;;;;-3.81;79.46;100486.06;4906972;29;20108;-58
2021/01/18 08:22:42;;;;;;;38.45;17.45;;;;;;;-3.66;79.82;100481.34;4922866;29;20107;-58
2021/01/18 08:25:09;;;;;;;34.83;17.42;;;;;;;-3.56;78.85;100484.94;4910044;29;20050;-58
2021/01/18 08:27:47;;;;;;;35.20;16.92;;;;;;;-3.51;78.46;100481.94;4897482;29;20050;-58
2021/01/18 08:30:19;;;;;;;33.55;17.88;;;;;;;-3.39;79.69;100480.97;4889606;29;20056;-57
2021/01/18 08:32:59;;;;;;;40.65;19.27;;;;;;;-3.30;79.02;100474.94;4890453;29;20569;-58
2021/01/18 08:35:30;;;;;;;52.03;23.42;;;;;;;-3.27;78.29;100472.06;4893069;29;20044;-57
2021/01/18 08:37:59;;;;;;;49.58;23.02;;;;;;;-3.23;78.50;100476.09;4891171;29;20064;-59
2021/01/18 08:40:36;;;;;;;41.42;20.38;;;;;;;-3.32;80.07;100484.78;4898758;29;20091;-57
2021/01/18 08:43:02;;;;;;;41.00;19.73;;;;;;;-3.31;80.50;100470.59;4910866;29;20130;-60
2021/01/18 08:45:30;;;;;;;41.33;19.08;;;;;;;-3.21;80.13;100473.34;4926469;29;20179;-58
2021/01/18 08:48:00;;;;;;;37.13;18.45;;;;;;;-3.15;80.40;100489.56;4912065;29;20067;-58
2021/01/18 08:50:28;;;;;;;35.60;18.55;;;;;;;-3.06;79.68;100477.38;4909851;29;20039;-57
2021/01/18 08:53:01;;;;;;;35.95;19.35;;;;;;;-3.00;80.81;100487.47;4908838;29;20040;-58
2021/01/18 08:55:30;;;;;;;40.50;19.65;;;;;;;-2.85;79.57;100480.06;4908453;29;20045;-58
2021/01/18 08:57:55;;;;;;;36.95;19.00;;;;;;;-2.84;79.73;100474.66;4909802;29;20571;-57
2021/01/18 09:00:21;;;;;;;39.35;19.80;;;;;;;-2.71;79.49;100479.78;4909120;29;20043;-58
2021/01/18 09:02:50;;;;;;;32.55;17.35;;;;;;;-2.75;79.17;100479.19;4908908;29;20405;-58
2021/01/18 09:05:20;;;;;;;34.67;17.70;;;;;;;-2.86;79.72;100481.03;4911145;29;20035;-58
2021/01/18 09:07:50;;;;;;;40.25;18.38;;;;;;;-2.95;81.22;100480.84;4907746;29;20295;-58
2021/01/18 09:10:21;;;;;;;37.67;19.20;;;;;;;-2.99;81.64;100476.75;4927150;29;20055;-57
2021/01/18 09:12:49;;;;;;;44.23;19.27;;;;;;;-2.85;80.97;100485.38;4909318;29;20047;-57
2021/01/18 09:15:18;;;;;;;38.47;19.42;;;;;;;-2.70;80.75;100484.09;4896378;29;20047;-58
2021/01/18 09:17:45;;;;;;;38.97;20.15;;;;;;;-2.66;80.75;100485.53;4907862;29;20433;-58
2021/01/18 09:20:12;;;;;;;39.83;19.80;;;;;;;-2.77;80.89;100489.03;4893279;29;20069;-58
2021/01/18 09:22:40;;;;;;;39.22;19.58;;;;;;;-2.63;80.58;100488.75;4906427;29;20082;-58
2021/01/18 09:25:07;;;;;;;38.47;18.15;;;;;;;-2.57;81.16;100488.25;4910299;29;20075;-58
2021/01/18 09:27:35;;;;;;;35.40;18.38;;;;;;;-2.58;81.19;100491.03;4924197;28;20043;-59
2021/01/18 09:30:06;;;;;;;37.05;19.48;;;;;;;-2.71;81.38;100499.13;4907828;28;20067;-57
2021/01/18 09:32:33;;;;;;;39.33;19.08;;;;;;;-2.92;82.31;100491.19;4908613;29;20523;-57
2021/01/18 09:35:13;;;;;;;39.40;19.98;;;;;;;-2.87;81.56;100496.06;4911289;29;20584;-59
2021/01/18 09:37:43;;;;;;;36.45;18.75;;;;;;;-2.63;81.47;100493.19;4908347;29;20472;-58
2021/01/18 09:40:10;;;;;;;39.70;19.40;;;;;;;-2.64;82.00;100483.56;4911427;29;20100;-58
2021/01/18 09:42:37;;;;;;;37.47;19.30;;;;;;;-2.57;82.20;100484.75;4927078;29;20102;-58
2021/01/18 09:45:07;;;;;;;37.75;20.10;;;;;;;-2.39;81.30;100475.25;4911198;29;20040;-58
2021/01/18 09:47:33;;;;;;;38.10;19.17;;;;;;;-2.40;80.04;100473.59;4909990;29;20338;-58
2021/01/18 09:50:25;;;;;;;39.00;20.33;;;;;;;-2.25;80.80;100476.75;4927149;29;20571;-57
2021/01/18 09:52:52;;;;;;;35.92;18.85;;;;;;;-2.32;80.68;100476.44;4923646;29;20509;-58
2021/01/18 09:55:27;;;;;;;40.72;21.17;;;;;;;-2.36;80.42;100482.97;4911259;29;20242;-58
2021/01/18 09:58:03;;;;;;;43.17;19.55;;;;;;;-2.39;80.66;100469.97;4909819;29;20028;-58
2021/01/18 10:00:36;;;;;;;41.03;21.02;;;;;;;-2.29;80.51;100464.72;4926454;29;20039;-58
2021/01/18 10:03:02;;;;;;;40.42;19.08;;;;;;;-2.23;80.35;100466.88;4909046;29;20036;-57
2021/01/18 10:05:43;;;;;;;40.83;19.45;;;;;;;-2.07;80.60;100467.22;4925999;29;20054;-58
2021/01/18 10:08:17;;;;;;;39.85;19.50;;;;;;;-1.93;79.51;100471.34;4909902;29;26067;-58
2021/01/18 10:10:48;;;;;;;48.47;20.33;;;;;;;-1.87;80.82;100461.06;4910287;29;20035;-58
2021/01/18 10:13:24;;;;;;;43.58;20.00;;;;;;;-1.93;80.90;100450.13;4926784;29;20048;-58
2021/01/18 10:15:50;;;;;;;42.03;20.33;;;;;;;-1.90;80.75;100457.81;4911201;29;20043;-57
2021/01/18 10:18:41;;;;;;;44.88;20.88;;;;;;;-1.86;81.26;100461.91;4931196;29;20140;-58
2021/01/18 10:21:09;;;;;;;44.33;20.30;;;;;;;-1.79;80.07;100465.69;4914741;29;20082;-59
2021/01/18 10:23:39;;;;;;;38.80;19.35;;;;;;;-1.74;80.14;100457.34;4914575;29;20166;-58
2021/01/18 10:26:25;;;;;;;40.25;19.02;;;;;;;-1.56;79.86;100448.59;4930592;29;20040;-57
2021/01/18 10:29:02;;;;;;;35.35;18.00;;;;;;;-1.63;79.55;100458.06;4913689;29;20051;-58
2021/01/18 10:31:33;;;;;;;36.50;19.95;;;;;;;-1.58;79.29;100445.25;4921427;29;20477;-58
2021/01/18 10:34:34;;;;;;;37.88;17.70;;;;;;;-1.64;79.21;100451.09;4909526;29;20493;-56
2021/01/18 10:37:12;;;;;;;35.42;19.42;;;;;;;-1.52;79.51;100454.47;4867928;29;20044;-59
2021/01/18 10:39:40;;;;;;;35.90;18.88;;;;;;;-1.51;79.78;100450.84;4909074;29;20095;-58
2021/01/18 10:42:17;;;;;;;43.05;18.88;;;;;;;-1.62;80.05;100454.47;4911523;29;20071;-58
2021/01/18 10:44:51;;;;;;;39.13;19.40;;;;;;;-1.67;80.53;100448.72;4910128;29;20042;-58
2021/01/18 10:47:20;;;;;;;39.88;19.67;;;;;;;-1.63;81.23;100454.59;4912259;29;20071;-56
2021/01/18 10:49:54;;;;;;;41.97;19.30;;;;;;;-1.58;80.53;100447.88;4911809;29;20063;-58
2021/01/18 10:52:41;;;;;;;37.92;19.65;;;;;;;-1.48;80.57;100454.06;4909476;29;20171;-57
2021/01/18 10:55:11;;;;;;;36.75;19.13;;;;;;;-1.34;81.00;100444.03;4911942;29;20075;-56
2021/01/18 10:57:39;;;;;;;39.67;20.73;;;;;;;-1.29;80.96;100447.13;4909055;29;20074;-58
2021/01/18 11:00:08;;;;;;;43.72;20.98;;;;;;;-1.41;80.69;100456.19;4911012;29;20127;-58
2021/01/18 11:02:36;;;;;;;41.28;19.73;;;;;;;-1.14;81.28;100449.22;4897964;29;20040;-58
2021/01/18 11:05:03;;;;;;;43.38;21.05;;;;;;;-0.88;80.24;100446.03;4889335;29;20473;-57
2021/01/18 11:07:30;;;;;;;38.40;21.20;;;;;;;-0.78;80.42;100453.00;4905494;29;20528;-58
2021/01/18 11:09:59;;;;;;;45.70;21.38;;;;;;;-0.69;79.34;100442.56;4910102;29;20043;-59
2021/01/18 11:12:38;;;;;;;39.38;21.08;;;;;;;-0.69;78.84;100445.19;4910033;28;20390;-58
2021/01/18 11:15:07;;;;;;;39.38;20.73;;;;;;;-0.87;79.96;100447.72;4911564;28;20505;-58
2021/01/18 11:17:33;;;;;;;36.67;20.20;;;;;;;-0.66;79.48;100444.91;4911015;28;20036;-59
2021/01/18 11:19:59;;;;;;;46.63;24.98;;;;;;;-0.75;79.47;100443.94;4906860;29;20155;-58
2021/01/18 11:22:24;;;;;;;47.75;23.08;;;;;;;-0.97;79.58;100439.75;4906688;29;20520;-58
2021/01/18 11:24:50;;;;;;;47.10;22.08;;;;;;;-0.79;79.84;100442.53;4908327;29;20044;-59
2021/01/18 11:27:16;;;;;;;68.05;36.97;;;;;;;-0.86;80.30;100450.22;4896680;29;20103;-58
2021/01/18 11:29:43;;;;;;;51.90;27.88;;;;;;;-0.75;79.68;100436.81;4889867;29;20056;-58
2021/01/18 11:32:09;;;;;;;41.33;20.88;;;;;;;-0.77;80.08;100435.28;4914343;29;20048;-59
2021/01/18 11:34:35;;;;;;;42.63;22.42;;;;;;;-0.73;80.06;100439.31;4899809;29;20044;-59
2021/01/18 11:37:07;;;;;;;42.85;21.73;;;;;;;-0.60;79.17;100442.53;4896870;29;20584;-58
2021/01/18 11:39:34;;;;;;;42.10;22.67;;;;;;;-0.82;79.87;100446.31;4908306;29;20039;-57
2021/01/18 11:42:06;;;;;;;39.38;20.92;;;;;;;-0.53;79.36;100440.97;4892439;29;20048;-58
2021/01/18 11:44:33;;;;;;;42.40;21.42;;;;;;;-0.42;79.25;100432.84;4890190;29;20040;-58
2021/01/18 11:47:00;;;;;;;44.30;21.85;;;;;;;-0.25;80.11;100436.59;4891200;29;20078;-59
2021/01/18 11:49:26;;;;;;;50.47;23.27;;;;;;;-0.26;79.94;100432.25;4893846;29;20578;-59
2021/01/18 11:51:54;;;;;;;42.17;22.55;;;;;;;-0.18;79.76;100437.69;4909333;29;20371;-58
2021/01/18 11:54:24;;;;;;;43.10;22.77;;;;;;;-0.01;78.61;100431.63;4910608;29;20509;-59
2021/01/18 11:56:50;;;;;;;42.92;22.42;;;;;;;-0.12;79.03;100423.84;4909586;29;20047;-58
2021/01/18 11:59:16;;;;;;;44.83;22.60;;;;;;;-0.17;79.51;100434.03;4909377;29;20453;-58
2021/01/18 12:01:43;;;;;;;39.35;20.92;;;;;;;0.04;79.20;100433.81;4909536;29;20035;-57
2021/01/18 12:04:09;;;;;;;44.45;22.17;;;;;;;-0.03;79.10;100430.09;4910762;29;20044;-57
2021/01/18 12:06:39;;;;;;;39.40;20.17;;;;;;;-0.19;78.62;100438.66;4910876;29;20044;-57
2021/01/18 12:09:07;;;;;;;42.97;21.58;;;;;;;-0.26;79.54;100431.41;4910330;29;20406;-58
2021/01/18 12:11:42;;;;;;;38.70;20.52;;;;;;;-0.39;80.45;100432.56;4909167;29;20043;-58
2021/01/18 12:14:08;;;;;;;56.22;29.30;;;;;;;-0.42;80.14;100435.50;4909804;29;20063;-57
2021/01/18 12:16:35;;;;;;;42.70;20.17;;;;;;;-0.61;80.50;100429.41;4902697;29;20075;-58
2021/01/18 12:19:00;;;;;;;45.03;20.38;;;;;;;-0.73;80.89;100428.72;4890697;29;20064;-58
2021/01/18 12:21:26;;;;;;;44.35;20.77;;;;;;;-0.69;81.47;100427.44;4891206;29;20560;-56
2021/01/18 12:23:52;;;;;;;43.63;20.05;;;;;;;-0.74;81.24;100422.56;4891364;29;20046;-58
2021/01/18 12:26:21;;;;;;;45.30;21.20;;;;;;;-0.74;81.46;100422.56;4888823;29;20052;-58
2021/01/18 12:28:48;;;;;;;51.00;24.67;;;;;;;-0.61;82.11;100424.09;4906767;29;20119;-57
2021/01/18 12:31:15;;;;;;;40.90;21.77;;;;;;;-0.55;81.94;100424.34;4873076;29;20036;-58
2021/01/18 12:33:41;;;;;;;43.63;21.45;;;;;;;-0.51;83.06;100415.13;4872293;29;20068;-56
2021/01/18 12:36:07;;;;;;;47.65;23.40;;;;;;;-0.56;83.05;100416.50;4870812;29;20056;-58
2021/01/18 12:38:33;;;;;;;45.83;23.75;;;;;;;-0.44;83.31;100413.56;4873848;29;20048;-58
2021/01/18 12:40:58;;;;;;;42.22;20.05;;;;;;;-0.35;82.20;100408.38;4886361;28;20044;-57
2021/01/18 12:43:25;;;;;;;42.05;22.25;;;;;;;-0.53;83.06;100411.75;4913563;28;20200;-58
2021/01/18 12:45:52;;;;;;;40.50;20.40;;;;;;;-0.42;83.62;100408.09;4909260;28;20032;-59
2021/01/18 12:48:18;;;;;;;40.08;20.15;;;;;;;-0.46;83.52;100412.84;4909620;29;20035;-59
2021/01/18 12:50:44;;;;;;;42.92;20.38;;;;;;;-0.39;83.96;100405.16;4907994;29;20036;-58
2021/01/18 12:53:11;;;;;;;44.95;21.27;;;;;;;-0.41;83.59;100401.81;4907522;28;20588;-58
2021/01/18 12:55:37;;;;;;;40.92;19.83;;;;;;;-0.24;83.89;100403.72;4909734;28;20134;-58
2021/01/18 12:58:03;;;;;;;42.60;19.80;;;;;;;-0.15;83.23;100400.19;4909724;28;20493;-58
2021/01/18 13:00:30;;;;;;;40.67;19.65;;;;;;;-0.03;83.14;100401.69;4909175;28;20055;-58
2021/01/18 13:02:56;;;;;;;41.42;21.05;;;;;;;0.00;83.18;100395.25;4909504;28;20055;-58
2021/01/18 13:05:22;;;;;;;34.83;19.10;;;;;;;-0.03;83.32;100393.72;4910644;28;20493;-58
2021/01/18 13:07:49;;;;;;;45.40;20.35;;;;;;;-0.03;82.37;100398.19;4910414;29;20046;-57
2021/01/18 13:10:16;;;;;;;43.22;21.45;;;;;;;0.11;82.59;100391.56;4909255;29;20441;-58
2021/01/18 13:12:41;;;;;;;37.65;20.52;;;;;;;0.26;82.34;100393.56;4907333;29;20131;-58
2021/01/18 13:15:09;;;;;;;40.30;20.38;;;;;;;0.39;82.13;100390.56;4892872;29;20063;-58
2021/01/18 13:17:35;;;;;;;37.28;19.95;;;;;;;0.41;82.26;100387.75;4889264;29;20036;-56
2021/01/18 13:20:01;;;;;;;38.75;19.40;;;;;;;0.54;81.45;100394.38;4892666;29;20406;-57
2021/01/18 13:22:26;;;;;;;39.00;20.75;;;;;;;0.51;80.87;100392.00;4886709;29;20044;-59
2021/01/18 13:24:52;;;;;;;42.45;20.60;;;;;;;0.51;81.89;100386.69;4893533;28;20102;-57
2021/01/18 13:27:17;;;;;;;41.15;20.08;;;;;;;0.65;81.74;100394.16;4905287;29;20497;-58
2021/01/18 13:29:43;;;;;;;41.50;21.02;;;;;;;0.69;80.48;100395.53;4897975;29;20047;-58
2021/01/18 13:32:09;;;;;;;43.58;20.92;;;;;;;0.65;81.36;100396.00;4893522;29;20533;-58
2021/01/18 13:34:35;;;;;;;39.53;21.02;;;;;;;0.74;81.26;100397.75;4911152;29;20048;-58
2021/01/18 13:37:00;;;;;;;43.38;21.40;;;;;;;0.85;81.09;100392.19;4891996;29;20059;-57
2021/01/18 13:39:26;;;;;;;42.25;23.23;;;;;;;0.77;80.67;100393.94;4891313;29;20083;-57
2021/01/18 13:41:53;;;;;;;42.88;22.08;;;;;;;0.62;81.56;100388.31;4905454;29;20040;-58
2021/01/18 13:44:19;;;;;;;48.35;23.05;;;;;;;0.52;81.85;100391.03;4925556;29;20320;-58
2021/01/18 13:46:45;;;;;;;42.13;22.20;;;;;;;0.59;82.52;100383.28;4910153;29;20531;-58
2021/01/18 13:49:11;;;;;;;40.75;21.45;;;;;;;0.51;81.59;100384.03;4908753;29;20039;-57
2021/01/18 13:51:36;;;;;;;58.28;29.60;;;;;;;0.48;81.62;100384.31;4909684;28;20528;-57
2021/01/18 13:54:02;;;;;;;40.53;23.02;;;;;;;0.51;81.17;100389.34;4911711;29;20077;-57
2021/01/18 13:56:27;;;;;;;38.88;21.27;;;;;;;0.53;80.98;100381.22;4921632;29;20502;-58
2021/01/18 13:58:57;;;;;;;58.83;32.10;;;;;;;0.50;81.62;100385.03;4906425;29;20044;-57
2021/01/18 14:01:27;;;;;;;71.20;39.20;;;;;;;0.52;81.44;100383.06;4893651;29;20060;-58
2021/01/18 14:03:57;;;;;;;39.05;20.95;;;;;;;0.48;81.37;100380.84;4895133;29;20115;-58
2021/01/18 14:06:27;;;;;;;42.13;21.77;;;;;;;0.48;81.00;100388.81;4894912;29;20036;-58
2021/01/18 14:09:00;;;;;;;42.83;20.92;;;;;;;0.38;81.33;100377.41;4894277;29;20513;-57
2021/01/18 14:11:33;;;;;;;45.40;21.67;;;;;;;0.35;81.56;100378.53;4927942;29;20352;-58
2021/01/18 14:14:00;;;;;;;42.65;21.17;;;;;;;0.29;82.00;100373.81;4895809;29;20052;-58
2021/01/18 14:16:25;;;;;;;39.47;20.60;;;;;;;0.35;82.54;100378.53;4895857;29;20102;-58
2021/01/18 14:18:51;;;;;;;41.05;21.38;;;;;;;0.41;82.02;100377.94;4912202;29;20044;-58
2021/01/18 14:21:17;;;;;;;39.22;20.38;;;;;;;0.39;81.62;100381.72;4914627;29;20126;-57
2021/01/18 14:23:43;;;;;;;40.10;20.83;;;;;;;0.42;82.28;100378.78;4928543;29;20038;-57
2021/01/18 14:26:09;;;;;;;43.92;22.02;;;;;;;0.33;81.77;100378.69;4899823;29;20048;-57
2021/01/18 14:28:35;;;;;;;43.00;21.38;;;;;;;0.37;82.39;100373.91;4895133;29;20290;-57
2021/01/18 14:31:01;;;;;;;43.85;22.58;;;;;;;0.34;82.12;100369.75;4892915;29;20123;-57
2021/01/18 14:33:27;;;;;;;41.92;21.17;;;;;;;0.41;82.37;100367.31;4911217;29;20579;-57
2021/01/18 14:35:53;;;;;;;42.30;22.70;;;;;;;0.42;82.76;100365.50;4893989;29;20565;-56
2021/01/18 14:38:19;;;;;;;44.60;21.15;;;;;;;0.36;82.96;100367.75;4895975;29;20051;-57
2021/01/18 14:40:44;;;;;;;48.88;22.77;;;;;;;0.40;82.04;100364.78;4904653;29;20043;-57
2021/01/18 14:43:10;;;;;;;39.05;20.60;;;;;;;0.43;83.40;100367.16;4912563;29;20190;-58
2021/01/18 14:45:35;;;;;;;45.80;23.45;;;;;;;0.25;83.12;100369.78;4913835;29;20039;-57
2021/01/18 14:48:01;;;;;;;39.50;21.98;;;;;;;0.33;83.47;100370.72;4910796;29;20040;-57
2021/01/18 14:50:27;;;;;;;45.08;21.60;;;;;;;0.39;83.88;100366.63;4908791;29;20047;-57
2021/01/18 14:52:53;;;;;;;47.30;22.02;;;;;;;0.36;83.88;100364.25;4909845;29;20039;-58
2021/01/18 14:55:18;;;;;;;44.35;21.77;;;;;;;0.36;84.43;100362.44;4908817;29;20127;-58
2021/01/18 14:57:45;;;;;;;43.55;22.80;;;;;;;0.26;83.75;100372.28;4911239;29;20067;-58
2021/01/18 15:00:12;;;;;;;39.50;21.33;;;;;;;0.39;83.82;100371.09;4912816;29;20047;-57
2021/01/18 15:02:39;;;;;;;41.38;22.05;;;;;;;0.31;83.95;100369.19;4912707;29;20035;-57
2021/01/18 15:05:05;;;;;;;42.50;21.33;;;;;;;0.29;84.37;100369.34;4913172;29;20042;-58
2021/01/18 15:07:36;;;;;;;38.08;20.05;;;;;;;0.26;83.72;100371.44;4912667;29;20043;-57
2021/01/18 15:10:03;;;;;;;43.05;22.80;;;;;;;0.25;84.05;100364.47;4912746;29;20047;-57
2021/01/18 15:12:29;;;;;;;41.72;21.02;;;;;;;0.24;83.76;100362.78;4912952;29;20087;-57
2021/01/18 15:14:54;;;;;;;48.17;22.75;;;;;;;0.19;84.52;100352.63;4912580;29;20051;-57
2021/01/18 15:17:20;;;;;;;48.20;23.48;;;;;;;0.19;84.29;100357.94;4908198;29;20157;-58
2021/01/18 15:19:46;;;;;;;47.50;20.70;;;;;;;0.15;84.37;100355.69;4893164;29;20059;-57
2021/01/18 15:22:12;;;;;;;41.67;20.73;;;;;;;0.27;84.66;100350.03;4889225;29;20040;-56
2021/01/18 15:24:37;;;;;;;46.13;21.05;;;;;;;0.28;84.59;100346.41;4892111;29;20502;-57
2021/01/18 15:27:08;;;;;;;39.75;20.33;;;;;;;0.33;84.89;100348.63;4894108;29;20438;-57
2021/01/18 15:29:34;;;;;;;39.50;20.40;;;;;;;0.30;85.44;100344.44;4892462;29;20426;-56
2021/01/18 15:31:59;;;;;;;38.97;18.38;;;;;;;0.21;85.67;100340.00;4893273;29;20127;-58
2021/01/18 15:34:25;;;;;;;38.33;18.85;;;;;;;0.23;85.96;100347.84;4893859;29;20052;-58
2021/01/18 15:36:52;;;;;;;33.50;16.35;;;;;;;0.15;86.22;100345.91;4893213;29;20091;-58
2021/01/18 15:39:22;;;;;;;41.25;18.90;;;;;;;0.13;86.52;100337.25;4893994;29;20060;-57
2021/01/18 15:41:49;;;;;;;37.65;18.15;;;;;;;0.09;87.25;100343.03;4904725;29;20406;-56
2021/01/18 15:44:16;;;;;;;43.05;19.10;;;;;;;0.07;86.93;100342.31;4907699;29;20036;-57
2021/01/18 15:46:42;;;;;;;46.60;22.10;;;;;;;0.05;86.25;100347.78;4927680;29;20130;-57
2021/01/18 15:49:07;;;;;;;45.72;22.75;;;;;;;0.10;86.33;100334.06;4893915;29;20446;-57
2021/01/18 15:51:33;;;;;;;49.72;21.13;;;;;;;0.13;86.70;100345.22;4892376;29;20258;-58
2021/01/18 15:53:59;;;;;;;45.88;22.73;;;;;;;0.13;85.39;100341.72;4892080;29;20056;-57
2021/01/18 15:56:26;;;;;;;48.90;20.48;;;;;;;0.12;86.09;100340.88;4908797;28;20047;-56
2021/01/18 15:58:52;;;;;;;44.22;21.42;;;;;;;0.08;85.66;100338.69;4911245;28;20044;-57
2021/01/18 16:01:19;;;;;;;47.00;23.42;;;;;;;0.05;85.57;100345.13;4908721;29;20039;-55
2021/01/18 16:03:44;;;;;;;48.20;22.23;;;;;;;0.09;86.86;100345.69;4912374;29;20055;-57
2021/01/18 16:06:10;;;;;;;50.83;20.73;;;;;;;0.08;86.81;100342.19;4910380;29;20044;-57
2021/01/18 16:08:36;;;;;;;34.78;17.70;;;;;;;0.15;86.64;100343.25;4911229;29;20497;-56
2021/01/18 16:11:01;;;;;;;35.92;19.52;;;;;;;0.13;86.38;100342.56;4898835;29;20040;-58
2021/01/18 16:13:27;;;;;;;46.85;22.30;;;;;;;0.14;86.67;100338.06;4892346;29;20059;-58
2021/01/18 16:15:53;;;;;;;44.65;21.00;;;;;;;0.14;86.40;100346.88;4893129;29;20040;-57
2021/01/18 16:18:18;;;;;;;44.20;22.27;;;;;;;0.10;85.38;100336.72;4910508;29;20469;-57
2021/01/18 16:20:44;;;;;;;43.70;22.02;;;;;;;0.01;85.78;100341.09;4902773;29;20096;-57
2021/01/18 16:23:10;;;;;;;47.53;21.92;;;;;;;0.06;85.73;100336.19;4892363;29;20127;-57